Rowena, Texas
Current Conditions -  °F | °C
As of 6:51 AM on Wednesday 22 Oct 2014 (Local Time) from KSJT Reporting Station
Light Rain Light Rain  
Wind Chill: 17°   Ceiling: 12000
Heat Index: 17°   Visibility: 10mi
Dew Point: 12°   Wind: 0mph
Humidity: 72%   Direction: NA
Pressure: 30.09"   Gusts: NA
Location:  31.65°N, 100.05°W
Report Text: KSJT 221151Z 00000KT 10SM -RA BKN120 17/12 A3009 RMK AO2 SLP173 P0000 60000 T01720122 10217 20172 53010
Loading
Personal Weather Stations






























Interactive Weather Map
Tropical Storm Tracking
New forecast layout! Learn more

10-Day Weather Forecast

Advertisements
Track Severe Weather on mobile